Jacksboro, Texas
Current Conditions -  °F | °C
As of 8:35 AM on Friday 28 Nov 2014 (Local Time) from KXBP Reporting Station
Clear Clear  
Wind Chill: 10°   Ceiling: Unl
Heat Index: 10°   Visibility: 10mi
Dew Point:   Wind: 10mph
Humidity: 69%   Direction: 210°SSW
Pressure: 30.21"   Gusts: 16mph
Location:  33.22°N, 98.16°W
Report Text: KXBP 281435Z AUTO 21009G14KT 10SM CLR 10/05 A3021 RMK AO2 T01040050
Loading
Personal Weather Stations






























Interactive Weather Map New forecast layout! Learn more

10-Day Weather Forecast

Advertisements
Track Severe Weather on mobile